AirNav   Everest Fuels
 
 1496 users online  

AK87 Team Levine Heliport
Big Lake, Alaska, USA

GOING TO BIG LAKE?


FAA INFORMATION EFFECTIVE 05 DECEMBER 2019

Location

FAA Identifier: AK87
Lat/Long: 61-30-53.5000N 149-55-44.4400W
61-30.891667N 149-55.740667W
61.5148611,-149.9290111
(estimated)
Elevation: 150 ft. / 46 m (estimated)
From city: 5 miles SW of BIG LAKE, AK
Time zone: UTC -9 (UTC -8 during Daylight Saving Time)
Zip code: 99567

Heliport Operations

Heliport use: Private use. Permission required prior to landing
Activation date: 05/2006
Control tower: no
ARTCC: ANCHORAGE CENTER
FSS: KENAI FLIGHT SERVICE STATION [907-283-7211]
Attendance: UNATNDD
Segmented circle: no

Heliport Communications

CTAF: 122.8
WX AWOS-3P at IYS (12 nm E): 135.25 (907-373-3801)
WX AWOS-3P at BCV (13 nm SE): 135.55 (907-688-0826)
WX ASOS at FRN (17 nm SE): 125.0 (907-384-0132)
WX ASOS at MRI (18 nm S): 124.25 (907-271-5277)
WX ASOS at LHD (20 nm S): PHONE 907-245-1618

Nearby radio navigation aids

VOR radial/distance  VOR name  Freq  Var
BGQr143/3.5BIG LAKE VORTAC112.5019E
TEDr344/20.8ANCHORAGE VOR/DME113.1518E

 
NDB name  Hdg/Dist  Freq  Var  ID
CAMPBELL LAKE353/20.933816ECMQ -.-. -- --.-

Heliport Services

Runway Information

Helipad H1

Dimensions: 50 x 50 ft. / 15 x 15 m
Surface: concrete
ROOFTOP.
Traffic pattern: leftleft

Heliport Ownership and Management from official FAA records

Ownership: Privately-owned
Owner: LARRY A. LEVINE
3301 PRINCETON WAY
ANCHORAGE, AK 99508
Phone (907) 744-9169
Manager: LARRY A. LEVINE
3301 PRINCETON WAY
ANCHORAGE, AK 99508
Phone (907) 744-9169

Additional Remarks

A52-H1 30 FT TREES 50 FT E & W OF HELIPAD.

Instrument Procedures

There are no published instrument procedures at AK87.

Some nearby airports with instrument procedures:

PAGQ - Big Lake Airport (4 nm E)
PAWS - Wasilla Airport (12 nm E)
PAUO - Willow Airport (15 nm N)
PAED - Elmendorf Air Force Base (16 nm S)
PAFR - Bryant Army Airfield Heliport (17 nm SE)
PAMR - Merrill Field Airport (18 nm S)
 
Loc | Ops | Rwys | IFR | FBO | Links
Com | Nav | Svcs | Stats | Notes

Crowley
 
Area around AK87 (Team Levine Heliport)
 
Road maps at: MapQuest Bing Google
 
Aerial photo
No photo
 
Sectional chart

 
Airport distance calculator
Flying to Team Levine Heliport? Find the distance to fly.

From to AK87

Sunrise and sunset
Times for 05-Dec-2019
 Local
(UTC-9)
 Zulu
(UTC)
Morning civil twilight08:5817:58
Sunrise09:5818:58
Sunset15:4300:43
Evening civil twilight16:4301:43

Current date and time
Zulu (UTC)  05-Dec-2019 17:30:30
Local (UTC-9)  05-Dec-2019 08:30:30
 
METAR
PABV 
13nm SE 
051656Z AUTO 13004KT 9SM -SN OVC003 M12/M13 A2987 RMK AO2 SNE06B46 SLP123 P0000 T11221133 FZRANO
PAED 
16nm S 
051708Z 01004KT 2SM BR OVC004 M12/M14 A2985 RMK SLP108 $
PAFR 
17nm SE 
051708Z AUTO 35003KT 2 1/2SM -PL BR OVC003 M12/M13 A2980 RMK AO2 VIS 1 1/2V2 1/2 SLP107
PAMR 
18nm S 
051653Z 35006KT 1SM BR VV003 M11/M13 A2985 RMK AO2 SLP110 T11111133 $
PALH 
20nm S 
051653Z 03007KT 1/2SM OVC005 M11/M13 A2987 RMK AO2 SFC VIS 10 SLP115 T11061128
PANC 
21nm S 
051653Z 35005KT 6SM BR OVC004 M11/M14 A2985 RMK AO2 SLP112 T11111139
PAAQ 
25nm E 
051653Z AUTO 00000KT 1/2SM HZ VV001 M16/M18 A2984 RMK AO2 SLP113 T11561183 TSNO
TAF
PAED 
16nm S 
051525Z 0515/0617 02009KT 1600 BR OVC002 620024 QNH2984INS BECMG 0520/0521 01012KT 6000 BR SCT003 BKN020 620202 QNH2975INS BECMG 0608/0609 01012KT 3200 BR BKN007 620079 QNH2949INS TEMPO 0609/0617 1800 BR TXM10/0611Z TNM15/0518Z
NOTAMs
Click for the latest NOTAMs
NOTAMs are issued by the DoD/FAA and will open in a separate window not controlled by AirNav.

 

 
 

Would you like to see your business listed on this page?

 If your business provides an interesting product or service to pilots, flight crews, aircraft, or users of the Team Levine Heliport, you should consider listing it here.  To start the listing process, click on the button below
 
Add a business
 

Other Pages about Team Levine Heliport

Update a link
 
Copyright © AirNav, LLC. All rights reserved. Privacy Policy  Contact